Iowa City, Iowa
Current Conditions -  °F | °C
As of 4:52 PM on Wednesday 17 Dec 2014 (Local Time) from KIOW Reporting Station
Clear Clear  
Wind Chill: 17°   Ceiling: Unl
Heat Index: 24°   Visibility: 10mi
Dew Point: 15°   Wind: 6mph
Humidity: 69%   Direction: 300°WNW
Pressure: 30.31"   Gusts: NA
Location:  41.66°N, 91.53°W
Report Text: KIOW 172252Z AUTO 30005KT 10SM CLR M04/M09 A3031 RMK AO2 SLP275 T10441094
Loading
Personal Weather Stations






























Interactive Weather Map New forecast layout! Learn more

10-Day Weather Forecast

Advertisements
Track Severe Weather on mobile